Time;durP1;ratioP1;P1;durP2;ratioP2;P2;SDS_P1;SDS_P2;PMS_P1;PMS_P2;Temp;Humidity;BMP_temperature;BMP_pressure;BME280_temperature;BME280_humidity;BME280_pressure;Samples;Min_cycle;Max_cycle;Signal;HPM_P1;HPM_P2
2022/11/29 00:01:04;;;;;;;;;9.50;4.50;;;;;9.05;75.14;101126.88;5081060;27;46304;-80
2022/11/29 00:03:32;;;;;;;;;4.25;2.75;;;;;9.02;75.43;101137.28;5099042;27;51910;-80
2022/11/29 00:06:06;;;;;;;;;7.00;5.00;;;;;8.98;75.68;101139.97;5099175;27;45443;-80
2022/11/29 00:08:31;;;;;;;;;5.25;4.50;;;;;8.93;75.51;101136.59;5099341;27;45208;-80
2022/11/29 00:11:02;;;;;;;;;5.50;3.00;;;;;8.88;75.72;101131.47;5063687;27;54626;-80
2022/11/29 00:13:28;;;;;;;;;5.50;4.50;;;;;8.81;76.07;101130.72;5099186;27;45360;-80
2022/11/29 00:15:53;;;;;;;;;5.75;4.00;;;;;8.82;75.82;101136.75;5098918;27;51601;-80
2022/11/29 00:18:18;;;;;;;;;6.25;5.00;;;;;8.83;75.89;101144.53;5098626;27;53566;-80
2022/11/29 00:20:44;;;;;;;;;2.00;2.00;;;;;8.74;75.66;101133.44;5098149;27;62660;-80
2022/11/29 00:23:09;;;;;;;;;7.00;4.75;;;;;8.76;75.93;101144.63;5062824;27;73663;-79
2022/11/29 00:25:37;;;;;;;;;3.25;3.25;;;;;8.73;75.67;101137.75;5063090;27;65066;-79
2022/11/29 00:28:02;;;;;;;;;4.75;4.25;;;;;8.70;75.76;101143.00;5099126;27;45390;-80
2022/11/29 00:30:27;;;;;;;;;5.00;5.00;;;;;8.57;76.40;101131.94;5098594;27;46462;-80
2022/11/29 00:32:53;;;;;;;;;8.00;5.25;;;;;8.58;76.58;101133.66;5098442;27;55901;-80
2022/11/29 00:35:18;;;;;;;;;5.25;5.00;;;;;8.62;76.21;101152.63;5098226;27;53325;-80
2022/11/29 00:37:44;;;;;;;;;4.25;4.25;;;;;8.54;76.09;101147.53;5098879;27;45330;-80
2022/11/29 00:40:09;;;;;;;;;5.50;5.50;;;;;8.51;76.39;101145.84;5098740;27;45524;-79
2022/11/29 00:42:35;;;;;;;;;6.75;3.25;;;;;8.59;76.67;101160.47;5098729;27;45417;-80
2022/11/29 00:45:00;;;;;;;;;6.75;3.25;;;;;8.56;76.08;101160.50;5098069;27;62653;-80
2022/11/29 00:47:25;;;;;;;;;7.75;5.25;;;;;8.52;75.88;101155.38;5098115;27;63285;-80
2022/11/29 00:49:51;;;;;;;;;3.50;2.75;;;;;8.43;75.67;101146.81;5080812;27;69469;-80
2022/11/29 00:52:16;;;;;;;;;9.25;3.25;;;;;8.37;75.84;101146.88;5059252;28;45506;-80
2022/11/29 00:54:41;;;;;;;;;4.75;3.50;;;;;8.36;75.89;101143.44;5077619;28;58343;-80
2022/11/29 00:57:06;;;;;;;;;7.25;5.00;;;;;8.32;76.13;101147.81;5077430;28;61311;-80
2022/11/29 00:59:32;;;;;;;;;6.25;3.25;;;;;8.34;75.86;101159.00;5075209;28;67845;-80
2022/11/29 01:01:57;;;;;;;;;4.50;2.00;;;;;8.26;76.04;101145.28;5077890;28;45274;-80
2022/11/29 01:04:23;;;;;;;;;7.25;4.25;;;;;8.20;76.03;101147.09;5059695;28;45416;-80
2022/11/29 01:06:52;;;;;;;;;5.00;5.00;;;;;8.12;75.82;101140.28;5078110;28;45281;-80
2022/11/29 01:09:17;;;;;;;;;4.00;2.25;;;;;8.13;76.11;101147.19;5077745;28;47095;-79
2022/11/29 01:11:43;;;;;;;;;4.75;4.00;;;;;8.17;76.19;101150.56;5059652;28;45364;-80
2022/11/29 01:14:09;;;;;;;;;5.00;4.00;;;;;8.10;75.84;101151.56;5078019;28;45599;-80
2022/11/29 01:16:35;;;;;;;;;3.25;2.50;;;;;8.06;76.30;101150.72;5059788;28;45419;-80
2022/11/29 01:19:00;;;;;;;;;6.00;2.00;;;;;8.04;76.10;101156.78;5077241;28;45439;-80
2022/11/29 01:21:26;;;;;;;;;2.50;2.50;;;;;8.01;76.23;101162.03;5059574;28;45434;-80
2022/11/29 01:23:51;;;;;;;;;5.25;2.50;;;;;8.04;76.44;101177.53;5077550;28;48595;-80
2022/11/29 01:26:19;;;;;;;;;5.00;2.00;;;;;8.01;76.24;101175.00;5076016;28;45595;-79
2022/11/29 01:28:47;;;;;;;;;5.00;2.00;;;;;7.87;76.16;101162.16;5077435;28;46311;-80
2022/11/29 01:31:17;;;;;;;;;6.00;5.00;;;;;7.86;76.42;101158.72;5059205;28;45894;-80
2022/11/29 01:33:42;;;;;;;;;5.00;4.00;;;;;7.86;76.25;101170.84;5077268;28;45340;-80
2022/11/29 01:36:08;;;;;;;;;6.00;4.00;;;;;7.89;76.50;101178.56;5076716;28;63089;-80
2022/11/29 01:38:34;;;;;;;;;8.00;4.75;;;;;7.85;76.37;101175.13;5059140;28;46754;-80
2022/11/29 01:41:07;;;;;;;;;6.00;5.00;;;;;7.79;76.27;101167.44;5067194;27;45339;-80
2022/11/29 01:43:34;;;;;;;;;6.50;4.25;;;;;7.76;76.68;101170.03;5079699;27;45415;-80
2022/11/29 01:45:59;;;;;;;;;4.00;4.00;;;;;7.79;76.71;101175.22;5079644;27;45377;-80
2022/11/29 01:48:30;;;;;;;;;4.00;2.00;;;;;7.81;76.87;101183.81;5091959;27;74719;-80
2022/11/29 01:50:59;;;;;;;;;6.50;4.00;;;;;7.81;77.04;101195.94;5059161;28;45500;-80
2022/11/29 01:53:25;;;;;;;;;5.25;4.00;;;;;7.73;76.75;101189.09;5059396;28;45317;-80
2022/11/29 01:55:54;;;;;;;;;9.50;5.50;;;;;7.72;77.08;101192.53;5058948;28;45302;-81
2022/11/29 01:58:20;;;;;;;;;4.00;3.50;;;;;7.72;77.36;101199.47;5058950;28;45352;-80
2022/11/29 02:00:45;;;;;;;;;6.50;5.00;;;;;7.71;77.26;101197.78;5058963;28;45320;-80
2022/11/29 02:03:13;;;;;;;;;4.00;4.00;;;;;7.79;77.21;101202.88;5057824;28;65582;-80
2022/11/29 02:05:47;;;;;;;;;5.00;4.25;;;;;7.80;77.41;101209.75;5058898;28;45260;-79
2022/11/29 02:08:15;;;;;;;;;2.00;2.00;;;;;7.79;77.54;101203.72;5076992;28;46326;-80
2022/11/29 02:10:52;;;;;;;;;3.75;3.50;;;;;7.89;77.74;101220.03;5058818;28;45258;-80
2022/11/29 02:14:05;;;;;;;;;4.25;4.25;;;;;7.86;77.66;101205.38;5076984;28;45496;-80
2022/11/29 02:16:46;;;;;;;;;5.75;1.75;;;;;7.97;77.77;101218.22;5076406;28;45395;-80
2022/11/29 02:19:17;;;;;;;;;6.50;5.00;;;;;8.14;77.84;101224.09;5041676;28;47662;-80
2022/11/29 02:22:09;;;;;;;;;7.00;5.00;;;;;8.18;78.45;101217.13;5076802;28;45850;-80
2022/11/29 02:25:10;;;;;;;;;8.75;6.00;;;;;8.31;78.20;101220.44;5058061;28;45422;-80
2022/11/29 02:27:54;;;;;;;;;11.00;8.00;;;;;8.42;78.00;101223.81;5076038;28;45355;-80
2022/11/29 02:30:48;;;;;;;;;8.25;7.75;;;;;8.41;78.14;101210.81;5076249;28;45677;-80
2022/11/29 02:33:25;;;;;;;;;8.00;6.00;;;;;8.57;77.57;101230.53;5076684;28;45428;-80
2022/11/29 02:35:53;;;;;;;;;9.50;8.25;;;;;8.64;77.69;101224.38;5076574;28;45346;-81
2022/11/29 02:38:52;;;;;;;;;9.75;7.75;;;;;8.66;77.81;101220.03;5075341;28;45460;-81
2022/11/29 02:41:42;;;;;;;;;12.75;8.00;;;;;8.81;77.47;101231.94;5041367;28;47334;-81
2022/11/29 02:44:32;;;;;;;;;13.00;8.25;;;;;8.82;77.16;101233.69;5041307;28;45779;-80
2022/11/29 02:47:30;;;;;;;;;1.00;0.00;;;;;8.89;77.74;101232.69;5058419;28;45387;-80
2022/11/29 02:50:44;;;;;;;;;8.00;8.00;;;;;8.88;77.51;101219.75;5058234;28;45512;-80
2022/11/29 02:53:36;;;;;;;;;6.00;5.25;;;;;8.97;77.48;101224.81;4993798;28;46164;-80
2022/11/29 02:56:19;;;;;;;;;6.75;5.75;;;;;9.03;77.35;101224.72;4977387;28;45423;-80
2022/11/29 02:59:03;;;;;;;;;8.50;8.50;;;;;9.06;77.38;101223.81;4994107;28;45359;-80
2022/11/29 03:02:07;;;;;;;;;8.75;7.25;;;;;9.09;77.26;101229.81;4993912;28;45469;-81
2022/11/29 03:05:10;;;;;;;;;9.00;5.25;;;;;9.09;77.40;101228.97;4991258;28;45575;-80
2022/11/29 03:07:45;;;;;;;;;9.00;6.00;;;;;9.07;77.57;101226.38;4916006;28;45413;-80
2022/11/29 03:10:21;;;;;;;;;8.50;6.00;;;;;9.08;77.57;101230.72;4916429;28;45357;-80
2022/11/29 03:12:49;;;;;;;;;6.25;4.50;;;;;9.11;77.49;101233.25;4916185;28;45508;-79
2022/11/29 03:15:30;;;;;;;;;6.25;6.25;;;;;9.08;77.56;101227.22;4899262;28;46886;-80
2022/11/29 03:18:21;;;;;;;;;1.75;1.00;;;;;9.19;77.62;101245.25;4899986;28;45848;-80
2022/11/29 03:21:18;;;;;;;;;3.25;3.25;;;;;9.23;76.99;101237.41;4916009;28;45404;-80
2022/11/29 03:23:50;;;;;;;;;9.00;6.00;;;;;9.28;77.17;101243.38;4910864;28;45551;-80
2022/11/29 03:26:43;;;;;;;;;3.25;3.25;;;;;9.32;77.09;101257.16;4908792;28;46561;-81
2022/11/29 03:29:18;;;;;;;;;3.00;3.00;;;;;9.28;76.66;101239.91;4992940;28;45466;-81
2022/11/29 03:32:01;;;;;;;;;3.75;3.25;;;;;9.30;76.97;101246.81;4988010;28;45423;-80
2022/11/29 03:34:32;;;;;;;;;6.00;2.00;;;;;9.37;76.92;101254.50;4996697;28;45560;-80
2022/11/29 03:37:20;;;;;;;;;7.25;5.00;;;;;9.39;76.65;101252.75;5013273;28;45531;-80
2022/11/29 03:40:04;;;;;;;;;8.25;4.25;;;;;9.41;76.66;101263.97;5096142;27;45288;-80
2022/11/29 03:43:01;;;;;;;;;8.75;5.75;;;;;9.40;76.42;101267.47;5075372;28;45402;-80
2022/11/29 03:45:45;;;;;;;;;7.25;3.25;;;;;9.30;76.59;101264.13;5040673;28;45353;-81
2022/11/29 03:48:22;;;;;;;;;5.25;3.50;;;;;9.34;77.27;101270.13;5057302;27;46154;-80
2022/11/29 03:51:15;;;;;;;;;3.00;3.00;;;;;9.38;77.15;101282.19;5057589;28;45491;-80
2022/11/29 03:53:51;;;;;;;;;6.50;5.75;;;;;9.39;76.63;101283.94;5075013;28;45278;-80
2022/11/29 03:56:27;;;;;;;;;8.50;6.00;;;;;9.30;76.67;101278.00;5057248;28;45537;-80
2022/11/29 03:59:27;;;;;;;;;5.00;5.00;;;;;9.37;76.93;101286.53;5075031;28;46628;-80
2022/11/29 04:02:29;;;;;;;;;6.00;5.00;;;;;9.39;76.51;101282.19;5075315;28;45709;-80
2022/11/29 04:05:19;;;;;;;;;8.50;6.25;;;;;9.36;76.65;101279.66;5057269;28;45467;-80
2022/11/29 04:07:59;;;;;;;;;9.00;6.00;;;;;9.25;77.03;101274.59;5075415;28;45302;-80
2022/11/29 04:10:37;;;;;;;;;7.00;6.00;;;;;9.30;76.78;101283.19;5057309;28;45378;-80
2022/11/29 04:13:20;;;;;;;;;10.00;5.00;;;;;9.36;77.01;101292.63;5074841;28;45397;-81
2022/11/29 04:15:48;;;;;;;;;7.00;5.25;;;;;9.37;76.94;101294.34;5075390;28;45261;-80
2022/11/29 04:18:41;;;;;;;;;6.00;5.50;;;;;9.41;76.88;101296.00;5057141;28;45354;-80
2022/11/29 04:21:23;;;;;;;;;9.00;6.00;;;;;9.45;76.96;101296.81;5056937;28;45442;-80
2022/11/29 04:24:10;;;;;;;;;10.50;6.00;;;;;9.45;76.95;101304.63;5057130;28;45408;-80
2022/11/29 04:27:05;;;;;;;;;9.00;9.00;;;;;9.45;76.60;101302.00;5076493;28;45345;-80
2022/11/29 04:29:46;;;;;;;;;7.25;5.50;;;;;9.45;76.73;101305.50;5078645;28;45308;-80
2022/11/29 04:32:30;;;;;;;;;5.75;5.00;;;;;9.44;76.44;101308.97;5060063;28;45558;-80
2022/11/29 04:35:17;;;;;;;;;13.25;7.00;;;;;9.42;76.82;101310.72;5078545;28;45943;-80
2022/11/29 04:38:04;;;;;;;;;9.75;6.00;;;;;9.43;76.37;101314.19;5060331;28;45532;-80
2022/11/29 04:40:32;;;;;;;;;8.00;7.25;;;;;9.40;76.93;101320.28;5077880;28;45533;-80
2022/11/29 04:43:16;;;;;;;;;7.00;5.00;;;;;9.32;76.85;101313.47;5059997;28;45410;-80
2022/11/29 04:46:12;;;;;;;;;5.50;3.25;;;;;9.34;76.95;101322.94;5077955;28;45312;-79
2022/11/29 04:48:50;;;;;;;;;9.00;7.00;;;;;9.30;77.22;101314.38;5059798;28;45515;-80
2022/11/29 04:51:24;;;;;;;;;6.00;6.00;;;;;9.40;76.80;101322.88;5060263;28;45533;-80
2022/11/29 04:53:55;;;;;;;;;9.00;9.00;;;;;9.33;76.97;101318.66;5078054;28;45642;-80
2022/11/29 04:56:42;;;;;;;;;9.00;6.25;;;;;9.41;77.14;101327.19;5059349;28;45463;-80
2022/11/29 04:59:34;;;;;;;;;10.50;6.00;;;;;9.32;77.19;101314.31;5060111;28;45612;-80
2022/11/29 05:02:23;;;;;;;;;7.50;6.00;;;;;9.33;77.01;101329.03;5059872;28;45353;-80
2022/11/29 05:05:03;;;;;;;;;9.50;7.00;;;;;9.36;77.40;101330.72;5059996;28;45431;-80
2022/11/29 05:07:50;;;;;;;;;6.75;6.25;;;;;9.39;77.02;101335.91;5077856;28;45386;-80
2022/11/29 05:10:37;;;;;;;;;9.50;6.00;;;;;9.39;77.06;101336.75;5059253;28;45297;-80
2022/11/29 05:13:18;;;;;;;;;9.50;6.00;;;;;9.35;76.62;101342.03;5078083;28;45610;-80
2022/11/29 05:15:53;;;;;;;;;9.25;7.75;;;;;9.26;76.80;101333.47;5042750;28;46721;-79
2022/11/29 05:18:57;;;;;;;;;10.50;6.00;;;;;9.31;76.39;101354.19;5077595;28;45830;-80
2022/11/29 05:21:33;;;;;;;;;9.25;6.25;;;;;9.18;76.34;101334.47;5015088;28;45449;-80
2022/11/29 05:24:16;;;;;;;;;11.50;8.25;;;;;9.22;76.60;101356.91;4998418;28;45446;-80
2022/11/29 05:27:08;;;;;;;;;10.25;7.25;;;;;9.12;76.39;101351.00;5014969;28;45464;-80
2022/11/29 05:30:18;;;;;;;;;11.00;7.00;;;;;9.07;76.53;101357.97;5014854;28;45951;-80
2022/11/29 05:33:01;;;;;;;;;12.75;7.75;;;;;9.01;77.04;101361.50;4901370;28;45306;-80
2022/11/29 05:35:45;;;;;;;;;9.00;9.00;;;;;8.99;77.27;101372.78;4917641;28;45437;-80
2022/11/29 05:38:28;;;;;;;;;12.00;9.00;;;;;8.98;77.29;101371.94;4917068;28;45397;-81
2022/11/29 05:40:56;;;;;;;;;16.75;10.25;;;;;8.98;77.35;101381.47;4923982;28;45957;-80
2022/11/29 05:43:52;;;;;;;;;9.50;8.00;;;;;8.96;77.47;101378.03;4936590;28;45477;-80
2022/11/29 05:46:25;;;;;;;;;9.75;9.00;;;;;8.90;77.58;101377.22;4920423;28;45522;-80
2022/11/29 05:48:58;;;;;;;;;7.50;7.00;;;;;8.90;77.72;101389.34;4909828;28;46674;-80
2022/11/29 05:51:32;;;;;;;;;17.00;9.00;;;;;8.85;77.85;101383.34;4882466;29;45863;-80
2022/11/29 05:54:24;;;;;;;;;8.50;6.00;;;;;8.86;77.64;101388.53;4897975;29;45380;-80
2022/11/29 05:57:17;;;;;;;;;14.75;9.25;;;;;8.88;77.89;101396.28;4882499;29;45515;-80
2022/11/29 05:59:44;;;;;;;;;13.25;8.50;;;;;8.87;77.66;101399.75;4955433;28;47041;-80
2022/11/29 06:02:46;;;;;;;;;9.25;9.25;;;;;8.88;77.41;101399.75;4938850;28;62544;-80
2022/11/29 06:05:17;;;;;;;;;15.75;13.00;;;;;8.82;77.50;101405.00;4955620;28;45345;-80
2022/11/29 06:07:51;;;;;;;;;15.25;10.25;;;;;8.77;77.84;101399.00;4939007;28;45566;-80
2022/11/29 06:10:19;;;;;;;;;11.50;11.50;;;;;8.69;77.77;101396.50;5030199;28;45440;-80
2022/11/29 06:12:53;;;;;;;;;13.50;12.50;;;;;8.73;77.74;101402.50;5056661;28;45466;-80
2022/11/29 06:15:45;;;;;;;;;12.75;12.75;;;;;8.77;77.83;101411.97;5038666;28;45404;-80
2022/11/29 06:18:22;;;;;;;;;14.75;9.75;;;;;8.78;78.17;101418.88;4994378;28;45416;-80
2022/11/29 06:21:21;;;;;;;;;13.00;8.75;;;;;8.77;77.94;101413.72;4994312;28;46539;-80
2022/11/29 06:24:58;;;;;;;;;9.50;9.50;;;;;8.78;77.84;101425.81;4935126;28;45930;-80
2022/11/29 06:27:39;;;;;;;;;10.75;10.00;;;;;8.65;77.45;101419.88;4897665;29;45549;-80
2022/11/29 06:30:08;;;;;;;;;11.25;9.00;;;;;8.68;77.96;101430.25;4881896;28;45424;-81
2022/11/29 06:32:50;;;;;;;;;9.50;9.50;;;;;8.66;77.94;101430.25;4897121;29;47617;-80
2022/11/29 06:35:49;;;;;;;;;8.25;8.25;;;;;8.62;77.52;101425.97;4897236;29;45915;-80
2022/11/29 06:38:29;;;;;;;;;12.00;9.00;;;;;8.59;77.05;101438.97;4881426;29;45449;-80
2022/11/29 06:40:56;;;;;;;;;15.25;9.75;;;;;8.44;77.46;101428.75;4904047;28;45576;-80
2022/11/29 06:43:24;;;;;;;;;13.00;11.50;;;;;8.36;77.10;101428.78;4916855;28;45571;-80
2022/11/29 06:45:52;;;;;;;;;11.75;8.50;;;;;8.36;77.00;101449.53;4916757;28;45297;-80
2022/11/29 06:48:27;;;;;;;;;10.00;9.00;;;;;8.21;77.44;101439.25;4900463;28;45445;-79
2022/11/29 06:51:03;;;;;;;;;19.00;12.00;;;;;8.12;77.21;101440.22;4900815;28;45707;-80
2022/11/29 06:54:06;;;;;;;;;12.00;8.50;;;;;8.10;77.38;101442.81;4917097;28;45423;-80
2022/11/29 06:56:35;;;;;;;;;9.00;9.00;;;;;8.03;77.70;101445.47;4876730;29;45437;-80
2022/11/29 06:59:12;;;;;;;;;14.50;9.75;;;;;7.87;77.40;101434.31;4826419;29;45371;-80
2022/11/29 07:01:49;;;;;;;;;13.25;10.00;;;;;7.90;77.78;101455.06;4909948;28;45363;-80
2022/11/29 07:04:19;;;;;;;;;11.50;9.25;;;;;7.86;77.53;101462.00;4940076;28;46373;-80
2022/11/29 07:06:45;;;;;;;;;18.00;12.00;;;;;7.73;77.82;101449.97;4947747;28;45819;-81
2022/11/29 07:09:15;;;;;;;;;13.50;8.50;;;;;7.76;77.97;101462.91;4944608;28;45491;-82
2022/11/29 07:11:41;;;;;;;;;18.00;14.00;;;;;7.68;78.25;101460.34;4937323;28;45365;-81
2022/11/29 07:14:08;;;;;;;;;15.50;10.50;;;;;7.68;78.08;101462.09;4942546;28;47337;-80
2022/11/29 07:16:46;;;;;;;;;16.00;9.25;;;;;7.73;78.08;101476.75;4973855;28;45925;-79
2022/11/29 07:19:48;;;;;;;;;10.00;5.75;;;;;7.72;78.20;101482.78;4970350;28;45898;-79
2022/11/29 07:22:59;;;;;;;;;10.50;8.50;;;;;7.68;78.12;101478.50;4970745;28;45396;-78
2022/11/29 07:25:55;;;;;;;;;16.50;12.50;;;;;7.56;78.02;101469.06;4956128;28;45452;-79
2022/11/29 07:28:45;;;;;;;;;18.50;13.75;;;;;7.56;77.72;101487.19;4956237;28;45382;-80
2022/11/29 07:31:29;;;;;;;;;15.75;14.00;;;;;7.52;78.17;101487.19;5029876;27;45511;-79
2022/11/29 07:34:07;;;;;;;;;14.25;14.25;;;;;7.46;78.11;101482.06;5085710;27;45467;-79
2022/11/29 07:36:39;;;;;;;;;14.25;11.25;;;;;7.36;78.41;101476.06;5058123;27;45465;-79
2022/11/29 07:39:28;;;;;;;;;14.00;10.25;;;;;7.39;77.91;101485.53;5088698;27;45919;-79
2022/11/29 07:42:20;;;;;;;;;19.50;17.50;;;;;7.36;78.49;101487.28;5070143;27;45360;-79
2022/11/29 07:44:56;;;;;;;;;16.00;15.75;;;;;7.36;78.36;101496.78;5063630;28;45502;-79
2022/11/29 07:47:22;;;;;;;;;19.75;16.00;;;;;7.28;78.37;101488.16;5082514;27;45521;-79
2022/11/29 07:49:47;;;;;;;;;21.50;16.50;;;;;7.27;78.50;101482.13;5073377;27;61964;-79
2022/11/29 07:52:14;;;;;;;;;17.75;15.00;;;;;7.27;78.41;101496.81;5084900;27;45458;-79
2022/11/29 07:54:39;;;;;;;;;25.50;19.00;;;;;7.33;78.64;101509.72;5076657;27;45322;-79
2022/11/29 07:57:05;;;;;;;;;21.75;20.00;;;;;7.26;78.31;101497.66;5097253;27;45492;-79
2022/11/29 07:59:30;;;;;;;;;25.00;17.25;;;;;7.31;78.57;101508.88;5094387;27;54149;-79
2022/11/29 08:01:55;;;;;;;;;18.00;12.50;;;;;7.20;78.21;101493.38;5090912;27;45953;-79
2022/11/29 08:04:21;;;;;;;;;19.25;13.75;;;;;7.21;78.50;101495.09;5091887;27;45331;-80
2022/11/29 08:06:46;;;;;;;;;23.50;18.50;;;;;7.27;79.18;101504.56;5060079;27;45698;-80
2022/11/29 08:09:12;;;;;;;;;21.00;20.25;;;;;7.36;79.05;101514.91;5092943;27;45618;-80
2022/11/29 08:11:38;;;;;;;;;18.50;15.50;;;;;7.32;78.98;101495.94;5069285;28;45377;-79
2022/11/29 08:14:04;;;;;;;;;20.75;18.25;;;;;7.38;79.19;101501.97;5078156;27;45488;-80
2022/11/29 08:16:30;;;;;;;;;13.50;12.25;;;;;7.48;79.13;101503.63;5096458;27;46216;-80
2022/11/29 08:18:56;;;;;;;;;17.00;14.75;;;;;7.56;79.10;101518.28;5062897;27;46097;-81
2022/11/29 08:21:21;;;;;;;;;21.50;16.00;;;;;7.61;78.67;101514.81;5078212;27;45821;-80
2022/11/29 08:23:47;;;;;;;;;19.75;15.25;;;;;7.67;78.59;101530.31;5090189;27;45384;-79
2022/11/29 08:26:13;;;;;;;;;21.75;15.75;;;;;7.62;79.20;101516.53;5079610;27;45413;-79
2022/11/29 08:28:39;;;;;;;;;23.25;18.00;;;;;7.65;78.77;101521.69;5059927;28;45287;-79
2022/11/29 08:31:06;;;;;;;;;23.75;20.25;;;;;7.64;78.78;101523.44;5070969;27;45352;-80
2022/11/29 08:33:40;;;;;;;;;31.75;23.50;;;;;7.65;78.75;101535.53;5059263;28;46034;-79
2022/11/29 08:36:12;;;;;;;;;26.75;21.00;;;;;7.59;78.60;101529.50;5078472;28;46218;-79
2022/11/29 08:38:37;;;;;;;;;26.00;21.75;;;;;7.68;78.62;101548.47;5077482;28;45326;-79
2022/11/29 08:41:04;;;;;;;;;32.25;23.00;;;;;7.59;78.72;101535.53;5053194;28;45282;-79
2022/11/29 08:43:33;;;;;;;;;23.00;21.50;;;;;7.66;78.68;101560.56;5039612;28;45696;-79
2022/11/29 08:45:58;;;;;;;;;31.25;23.75;;;;;7.64;78.90;101559.72;5075391;28;46460;-79
2022/11/29 08:48:24;;;;;;;;;27.75;16.75;;;;;7.70;78.40;101569.19;5043191;28;45447;-79
2022/11/29 08:50:51;;;;;;;;;19.75;17.75;;;;;7.64;78.39;101575.25;5073716;28;45493;-79
2022/11/29 08:56:01;;;;;;;;;24.50;19.25;;;;;7.67;78.42;101576.97;5047069;28;45524;-80
2022/11/29 08:58:26;;;;;;;;;27.75;23.00;;;;;7.75;78.39;101586.44;5067068;28;45463;-80
2022/11/29 09:00:52;;;;;;;;;17.75;15.75;;;;;7.76;78.23;101589.91;5039377;28;45568;-79
2022/11/29 09:06:06;;;;;;;;;27.50;19.00;;;;;7.82;79.10;101584.72;5075731;28;45871;-80
2022/11/29 09:08:31;;;;;;;;;23.50;18.00;;;;;7.93;78.39;101587.22;5040595;28;45641;-80
2022/11/29 09:10:57;;;;;;;;;24.00;16.75;;;;;7.94;77.63;101583.78;5076843;28;58502;-79
2022/11/29 09:13:22;;;;;;;;;31.25;18.75;;;;;8.02;77.54;101607.06;5073144;28;52509;-80
2022/11/29 09:15:47;;;;;;;;;24.50;18.25;;;;;7.95;77.99;101601.06;5063007;28;66382;-80
2022/11/29 09:18:13;;;;;;;;;21.00;19.50;;;;;7.98;78.12;101601.03;5056040;28;45737;-80
2022/11/29 09:20:41;;;;;;;;;29.75;20.25;;;;;8.07;77.47;101615.72;5070195;28;45606;-79
2022/11/29 09:23:07;;;;;;;;;29.50;20.75;;;;;8.04;77.53;101613.13;5058824;28;45419;-80
2022/11/29 09:25:32;;;;;;;;;22.25;18.25;;;;;8.10;77.73;101610.53;5075701;28;65782;-79
2022/11/29 09:28:00;;;;;;;;;19.75;18.75;;;;;8.20;78.11;101616.50;5063376;28;45331;-79
2022/11/29 09:30:28;;;;;;;;;28.75;21.75;;;;;8.28;77.72;101618.22;5057021;27;45420;-79
2022/11/29 09:32:54;;;;;;;;;25.50;17.50;;;;;8.35;77.38;101619.00;5090812;27;45482;-79
2022/11/29 09:35:19;;;;;;;;;28.75;17.00;;;;;8.48;77.42;101635.41;5076809;27;69090;-80
2022/11/29 09:37:44;;;;;;;;;39.75;23.00;;;;;8.56;77.22;101643.16;5086086;27;73231;-79
2022/11/29 09:40:16;;;;;;;;;37.00;25.25;;;;;8.58;76.92;101654.38;5098139;27;58370;-79
2022/11/29 09:42:53;;;;;;;;;33.75;21.00;;;;;8.57;76.84;101647.47;5082200;27;45427;-79
2022/11/29 09:45:26;;;;;;;;;22.75;18.75;;;;;8.50;76.83;101638.84;5082898;27;46668;-79
2022/11/29 09:48:21;;;;;;;;;30.75;19.25;;;;;8.54;76.57;101645.75;5066781;27;46144;-79
2022/11/29 09:50:51;;;;;;;;;29.50;21.00;;;;;8.59;76.46;101651.78;5066783;27;45465;-79
2022/11/29 09:53:50;;;;;;;;;25.00;18.00;;;;;8.67;76.08;101663.00;5069739;28;45756;-79
2022/11/29 09:56:26;;;;;;;;;24.00;15.50;;;;;8.63;75.65;101674.25;5079498;27;46294;-79
2022/11/29 09:58:56;;;;;;;;;20.00;14.75;;;;;8.66;76.36;101676.81;5072396;27;45849;-79
2022/11/29 10:01:25;;;;;;;;;24.00;17.50;;;;;8.74;76.16;101681.13;5068101;27;45376;-80
2022/11/29 10:03:53;;;;;;;;;13.25;10.75;;;;;8.73;75.80;101669.88;5073826;27;45484;-79
2022/11/29 10:06:35;;;;;;;;;18.00;15.50;;;;;8.83;75.73;101681.91;5072181;27;45471;-79
2022/11/29 10:09:21;;;;;;;;;22.75;13.75;;;;;8.86;75.86;101681.91;5074420;27;45674;-80
2022/11/29 10:11:58;;;;;;;;;18.50;12.50;;;;;8.91;75.81;101682.75;5087968;27;45459;-79
2022/11/29 10:14:29;;;;;;;;;27.75;16.25;;;;;8.97;75.82;101675.75;5096785;27;45352;-79
2022/11/29 10:17:20;;;;;;;;;32.75;23.00;;;;;9.06;75.84;101679.16;5116807;27;45278;-79
2022/11/29 10:19:49;;;;;;;;;26.25;17.00;;;;;9.06;75.83;101668.78;5110714;27;45551;-79
2022/11/29 10:22:20;;;;;;;;;22.25;17.00;;;;;9.21;75.92;101678.19;5061516;28;45491;-80
2022/11/29 10:24:49;;;;;;;;;22.00;15.00;;;;;9.29;75.42;101683.31;5092160;27;45504;-79
2022/11/29 10:27:21;;;;;;;;;28.25;23.00;;;;;9.32;74.94;101674.63;5070427;27;45517;-79
2022/11/29 10:29:49;;;;;;;;;23.75;16.75;;;;;9.35;74.83;101664.22;5064798;28;45495;-79
2022/11/29 10:32:16;;;;;;;;;20.50;17.50;;;;;9.47;74.74;101672.75;5087669;27;45338;-79
2022/11/29 10:34:42;;;;;;;;;32.00;17.00;;;;;9.54;74.74;101686.53;5098017;27;45383;-79
2022/11/29 10:37:14;;;;;;;;;27.50;18.50;;;;;9.57;74.74;101685.66;5105994;27;45378;-80
2022/11/29 10:39:48;;;;;;;;;18.25;17.25;;;;;9.73;74.73;101687.22;5093646;27;45495;-79
2022/11/29 10:45:01;;;;;;;;;32.50;21.25;;;;;9.91;73.86;101680.97;5071003;27;45614;-80
2022/11/29 10:47:26;;;;;;;;;27.00;21.75;;;;;10.05;73.38;101689.47;5066698;27;65233;-79
2022/11/29 10:49:51;;;;;;;;;23.50;19.75;;;;;9.99;73.34;101679.16;5092079;27;45524;-79
2022/11/29 10:52:19;;;;;;;;;26.75;19.00;;;;;10.07;73.35;101692.06;5075971;27;60621;-79
2022/11/29 10:54:45;;;;;;;;;21.50;17.75;;;;;10.13;73.21;101696.34;5073230;28;45552;-79
2022/11/29 10:57:16;;;;;;;;;27.75;23.50;;;;;10.04;73.30;101692.94;5057095;28;47336;-79
2022/11/29 11:00:07;;;;;;;;;26.50;18.00;;;;;10.11;72.79;101698.94;5074989;27;45240;-79
2022/11/29 11:02:33;;;;;;;;;31.75;23.00;;;;;10.05;72.62;101689.47;5108596;27;45526;-79
2022/11/29 11:05:00;;;;;;;;;23.50;21.00;;;;;10.04;73.20;101690.34;5076885;27;45357;-79
2022/11/29 11:07:34;;;;;;;;;18.50;18.50;;;;;10.12;73.10;101689.41;5077458;27;45469;-79
2022/11/29 11:10:01;;;;;;;;;31.50;18.50;;;;;10.08;72.84;101689.44;5081056;27;45460;-80
2022/11/29 11:12:29;;;;;;;;;34.25;19.50;;;;;10.14;73.12;101688.53;5088952;27;45365;-79
2022/11/29 11:15:23;;;;;;;;;36.00;20.00;;;;;10.19;72.40;101702.31;5078729;27;45356;-79
2022/11/29 11:17:55;;;;;;;;;21.50;16.25;;;;;10.15;73.33;101694.56;5075113;27;45462;-79
2022/11/29 11:20:23;;;;;;;;;24.00;18.75;;;;;10.22;72.82;101698.81;5074976;27;45386;-79
2022/11/29 11:23:06;;;;;;;;;25.25;19.75;;;;;10.15;72.66;101697.19;5078507;27;45478;-79
2022/11/29 11:25:34;;;;;;;;;25.25;22.50;;;;;10.14;72.82;101701.53;5057059;28;45329;-79
2022/11/29 11:28:20;;;;;;;;;28.50;20.00;;;;;10.21;73.19;101700.53;5056372;28;45642;-79
2022/11/29 11:30:58;;;;;;;;;29.25;22.50;;;;;10.23;72.92;101692.72;5066324;28;45496;-79
2022/11/29 11:33:32;;;;;;;;;20.00;16.25;;;;;10.31;72.61;101692.66;5056920;27;45345;-79
2022/11/29 11:36:04;;;;;;;;;26.25;24.25;;;;;10.37;72.82;101696.06;5084348;27;45422;-79
2022/11/29 11:38:29;;;;;;;;;28.75;16.50;;;;;10.33;72.44;101685.72;5079529;27;46559;-79
2022/11/29 11:41:16;;;;;;;;;23.75;18.50;;;;;10.38;72.74;101703.00;5090414;27;45382;-79
2022/11/29 11:43:49;;;;;;;;;23.75;18.75;;;;;10.39;72.89;101702.09;5078821;27;45488;-79
2022/11/29 11:46:15;;;;;;;;;25.25;18.25;;;;;10.37;72.83;101697.81;5077210;27;45456;-80
2022/11/29 11:48:41;;;;;;;;;26.25;19.50;;;;;10.41;72.52;101702.09;5077958;27;45440;-79
2022/11/29 11:51:23;;;;;;;;;22.75;20.00;;;;;10.39;72.31;101703.84;5060260;28;45527;-79
2022/11/29 11:53:53;;;;;;;;;28.50;20.00;;;;;10.33;72.49;101689.19;5066066;27;45525;-79
2022/11/29 11:56:19;;;;;;;;;28.50;21.00;;;;;10.39;72.80;101696.91;5079001;27;45382;-79
2022/11/29 11:58:51;;;;;;;;;28.50;20.00;;;;;10.43;72.11;101698.56;5061299;27;45368;-79
2022/11/29 12:01:29;;;;;;;;;24.25;15.50;;;;;10.37;72.05;101682.19;5072854;27;45553;-79
2022/11/29 12:04:07;;;;;;;;;29.00;19.75;;;;;10.38;72.42;101686.50;5079014;27;45484;-79
2022/11/29 12:06:57;;;;;;;;;23.50;21.00;;;;;10.43;72.66;101701.19;5090588;27;45559;-79
2022/11/29 12:09:34;;;;;;;;;25.25;21.25;;;;;10.40;72.26;101705.56;5062225;27;47203;-80
2022/11/29 12:12:08;;;;;;;;;24.75;19.75;;;;;10.40;72.49;101696.03;5076835;27;45356;-79